createdAt,value
2017-10-28T01:36:24.077Z,1023.14
2017-10-28T01:36:24.643Z,1023.12
2017-10-28T01:36:25.245Z,1023.12
2017-10-28T01:36:25.843Z,1023.11
2017-10-28T01:36:26.442Z,1023.13
2017-10-28T01:36:27.041Z,1023.11
2017-10-28T01:36:27.642Z,1023.11
2017-10-28T01:36:28.241Z,1023.09
2017-10-28T01:37:21.722Z,1023.10
2017-10-28T01:37:22.297Z,1023.11
2017-10-28T01:37:22.895Z,1023.08
2017-10-28T01:37:23.495Z,1023.12
2017-10-28T01:37:24.095Z,1023.11
2017-10-28T01:37:24.696Z,1023.11
2017-10-28T01:37:25.294Z,1023.10
2017-10-28T01:37:25.900Z,1023.10
2017-10-28T01:38:19.374Z,1023.15
2017-10-28T01:38:19.948Z,1023.14
2017-10-28T01:38:20.547Z,1023.11
2017-10-28T01:38:21.148Z,1023.13
2017-10-28T01:38:21.751Z,1023.10
2017-10-28T01:38:22.347Z,1023.12
2017-10-28T01:38:22.947Z,1023.12
2017-10-28T01:38:23.548Z,1023.11
2017-10-28T01:39:18.050Z,1023.07
2017-10-28T01:39:18.624Z,1023.07
2017-10-28T01:39:19.224Z,1023.04
2017-10-28T01:39:19.824Z,1023.05
2017-10-28T01:39:20.424Z,1023.06
2017-10-28T01:39:21.023Z,1023.08
2017-10-28T01:39:21.624Z,1023.06
2017-10-28T01:39:22.239Z,1023.08
2017-10-28T01:40:16.724Z,1023.02
2017-10-28T01:40:17.300Z,1023.09
2017-10-28T01:40:17.899Z,1023.03
2017-10-28T01:40:18.499Z,1023.05
2017-10-28T01:40:19.099Z,1023.04
2017-10-28T01:40:19.699Z,1023.04
2017-10-28T01:40:20.302Z,1022.98
2017-10-28T01:40:20.899Z,1023.04
2017-10-28T01:41:14.378Z,1022.98
2017-10-28T01:41:14.954Z,1023.00
2017-10-28T01:41:15.553Z,1023.01
2017-10-28T01:41:16.153Z,1023.01
2017-10-28T01:41:16.752Z,1022.98
2017-10-28T01:41:17.353Z,1022.93
2017-10-28T01:41:17.952Z,1022.97
2017-10-28T01:41:18.553Z,1022.95
2017-10-28T01:42:13.060Z,1023.02
2017-10-28T01:42:13.630Z,1023.00
2017-10-28T01:42:14.230Z,1022.99
2017-10-28T01:42:14.828Z,1022.99
2017-10-28T01:42:15.435Z,1023.00
2017-10-28T01:42:16.028Z,1023.02
2017-10-28T01:42:16.627Z,1023.04
2017-10-28T01:42:17.227Z,1023.00
2017-10-28T01:43:11.729Z,1022.94
2017-10-28T01:43:12.309Z,1022.97
2017-10-28T01:43:12.904Z,1022.95
2017-10-28T01:43:13.502Z,1022.94
2017-10-28T01:43:14.103Z,1022.95
2017-10-28T01:43:14.705Z,1022.95
2017-10-28T01:43:15.305Z,1022.94
2017-10-28T01:43:15.901Z,1022.96
2017-10-28T01:44:10.407Z,1022.91
2017-10-28T01:44:10.979Z,1022.89
2017-10-28T01:44:11.579Z,1022.91
2017-10-28T01:44:12.178Z,1022.90
2017-10-28T01:44:12.778Z,1022.91
2017-10-28T01:44:13.379Z,1022.88
2017-10-28T01:44:13.977Z,1022.91
2017-10-28T01:44:14.577Z,1022.88
2017-10-28T01:45:08.061Z,1022.77
2017-10-28T01:45:08.633Z,1022.75
2017-10-28T01:45:09.235Z,1022.74
2017-10-28T01:45:09.833Z,1022.77
2017-10-28T01:45:10.433Z,1022.80
2017-10-28T01:45:11.032Z,1022.75
2017-10-28T01:45:11.632Z,1022.77
2017-10-28T01:45:12.233Z,1022.77
2017-10-28T01:46:06.734Z,1022.60
2017-10-28T01:46:07.306Z,1022.59
2017-10-28T01:46:07.907Z,1022.66
2017-10-28T01:46:08.507Z,1022.62
2017-10-28T01:46:09.106Z,1022.65
2017-10-28T01:46:09.706Z,1022.65
2017-10-28T01:46:10.307Z,1022.66
2017-10-28T01:46:10.905Z,1022.66
2017-10-28T01:47:04.385Z,1022.53
2017-10-28T01:47:04.961Z,1022.57
2017-10-28T01:47:05.561Z,1022.54
2017-10-28T01:47:06.161Z,1022.56
2017-10-28T01:47:06.760Z,1022.51
2017-10-28T01:47:07.374Z,1022.53
2017-10-28T01:47:07.959Z,1022.54
2017-10-28T01:47:08.559Z,1022.52
2017-10-28T01:48:03.062Z,1022.51
2017-10-28T01:48:03.635Z,1022.51
2017-10-28T01:48:04.237Z,1022.52
2017-10-28T01:48:04.837Z,1022.50
2017-10-28T01:48:05.435Z,1022.56
2017-10-28T01:48:06.035Z,1022.54
2017-10-28T01:48:06.636Z,1022.49
2017-10-28T01:48:07.235Z,1022.53
2017-10-28T01:49:00.713Z,1022.51
2017-10-28T01:49:01.287Z,1022.53
2017-10-28T01:49:01.895Z,1022.53
2017-10-28T01:49:02.488Z,1022.53
2017-10-28T01:49:03.087Z,1022.52
2017-10-28T01:49:03.687Z,1022.53
2017-10-28T01:49:04.287Z,1022.55
2017-10-28T01:49:04.887Z,1022.52
2017-10-28T01:49:58.365Z,1022.51
2017-10-28T01:49:58.945Z,1022.45
2017-10-28T01:49:59.540Z,1022.49
2017-10-28T01:50:00.141Z,1022.51
2017-10-28T01:50:00.742Z,1022.47
2017-10-28T01:50:01.341Z,1022.50
2017-10-28T01:50:01.940Z,1022.48
2017-10-28T01:50:02.539Z,1022.47
2017-10-28T01:50:57.041Z,1022.51
2017-10-28T01:50:57.615Z,1022.49
2017-10-28T01:50:58.214Z,1022.51
2017-10-28T01:50:58.814Z,1022.53
2017-10-28T01:50:59.414Z,1022.51
2017-10-28T01:51:00.019Z,1022.48
2017-10-28T01:51:00.615Z,1022.50
2017-10-28T01:51:01.215Z,1022.45
2017-10-28T01:51:55.716Z,1022.45
2017-10-28T01:51:56.292Z,1022.47
2017-10-28T01:51:56.889Z,1022.44
2017-10-28T01:51:57.490Z,1022.49
2017-10-28T01:51:58.091Z,1022.49
2017-10-28T01:51:58.691Z,1022.46
2017-10-28T01:51:59.289Z,1022.44
2017-10-28T01:51:59.890Z,1022.46
2017-10-28T01:52:54.393Z,1022.41
2017-10-28T01:52:54.966Z,1022.45
2017-10-28T01:52:55.567Z,1022.42
2017-10-28T01:52:56.165Z,1022.42
2017-10-28T01:52:56.765Z,1022.45
2017-10-28T01:52:57.365Z,1022.48
2017-10-28T01:52:57.965Z,1022.47
2017-10-28T01:52:58.565Z,1022.49
2017-10-28T01:53:53.068Z,1022.50
2017-10-28T01:53:53.640Z,1022.47
2017-10-28T01:53:54.241Z,1022.51
2017-10-28T01:53:54.840Z,1022.51
2017-10-28T01:53:55.442Z,1022.51
2017-10-28T01:53:56.041Z,1022.46
2017-10-28T01:53:56.640Z,1022.45
2017-10-28T01:53:57.241Z,1022.44
2017-10-28T01:54:50.718Z,1022.43
2017-10-28T01:54:51.293Z,1022.44
2017-10-28T01:54:51.899Z,1022.46
2017-10-28T01:54:52.494Z,1022.44
2017-10-28T01:54:53.094Z,1022.44
2017-10-28T01:54:53.693Z,1022.45
2017-10-28T01:54:54.294Z,1022.47
2017-10-28T01:54:54.893Z,1022.45
2017-10-28T01:55:49.397Z,1022.56
2017-10-28T01:55:49.970Z,1022.57
2017-10-28T01:55:50.570Z,1022.58
2017-10-28T01:55:51.169Z,1022.60
2017-10-28T01:55:51.773Z,1022.56
2017-10-28T01:55:52.370Z,1022.54
2017-10-28T01:55:52.969Z,1022.53
2017-10-28T01:55:53.568Z,1022.50
2017-10-28T01:56:48.071Z,1022.52
2017-10-28T01:56:48.645Z,1022.51
2017-10-28T01:56:49.243Z,1022.53
2017-10-28T01:56:49.844Z,1022.53
2017-10-28T01:56:50.445Z,1022.52
2017-10-28T01:56:51.044Z,1022.56
2017-10-28T01:56:51.644Z,1022.53
2017-10-28T01:56:52.243Z,1022.54
2017-10-28T01:57:46.746Z,1022.50
2017-10-28T01:57:47.320Z,1022.51
2017-10-28T01:57:47.920Z,1022.48
2017-10-28T01:57:48.520Z,1022.51
2017-10-28T01:57:49.120Z,1022.51
2017-10-28T01:57:49.720Z,1022.51
2017-10-28T01:57:50.321Z,1022.49
2017-10-28T01:57:50.918Z,1022.53
2017-10-28T01:58:45.422Z,1022.44
2017-10-28T01:58:45.998Z,1022.47
2017-10-28T01:58:46.595Z,1022.47
2017-10-28T01:58:47.196Z,1022.51
2017-10-28T01:58:47.795Z,1022.45
2017-10-28T01:58:48.395Z,1022.47
2017-10-28T01:58:48.994Z,1022.46
2017-10-28T01:58:49.595Z,1022.44
2017-10-28T01:59:44.098Z,1022.48
2017-10-28T01:59:44.673Z,1022.49
2017-10-28T01:59:45.272Z,1022.48
2017-10-28T01:59:45.882Z,1022.51
2017-10-28T01:59:46.471Z,1022.48
2017-10-28T01:59:47.072Z,1022.49
2017-10-28T01:59:47.673Z,1022.50
2017-10-28T01:59:48.271Z,1022.47
2017-10-28T02:00:42.773Z,1022.52
2017-10-28T02:00:43.347Z,1022.52
2017-10-28T02:00:43.947Z,1022.56
2017-10-28T02:00:44.548Z,1022.56
2017-10-28T02:00:45.147Z,1022.57
2017-10-28T02:00:45.747Z,1022.53
2017-10-28T02:00:46.346Z,1022.52
2017-10-28T02:00:46.946Z,1022.55
2017-10-28T02:01:40.426Z,1022.42
2017-10-28T02:01:40.999Z,1022.45
2017-10-28T02:01:41.601Z,1022.45
2017-10-28T02:01:42.200Z,1022.44
2017-10-28T02:01:42.803Z,1022.46
2017-10-28T02:01:43.399Z,1022.40
2017-10-28T02:01:44.001Z,1022.45
2017-10-28T02:01:44.600Z,1022.46
2017-10-28T02:02:38.077Z,1022.46
2017-10-28T02:02:38.652Z,1022.50
2017-10-28T02:02:39.251Z,1022.50
2017-10-28T02:02:39.851Z,1022.48
2017-10-28T02:02:40.451Z,1022.51
2017-10-28T02:02:41.054Z,1022.52
2017-10-28T02:02:41.651Z,1022.53
2017-10-28T02:02:42.250Z,1022.51
2017-10-28T02:03:35.728Z,1022.45
2017-10-28T02:03:36.303Z,1022.47
2017-10-28T02:03:36.903Z,1022.45
2017-10-28T02:03:37.503Z,1022.45
2017-10-28T02:03:38.102Z,1022.46
2017-10-28T02:03:38.702Z,1022.41
2017-10-28T02:03:39.300Z,1022.48
2017-10-28T02:03:39.901Z,1022.45
2017-10-28T02:04:33.380Z,1022.44
2017-10-28T02:04:33.955Z,1022.40
2017-10-28T02:04:34.555Z,1022.40
2017-10-28T02:04:35.154Z,1022.40
2017-10-28T02:04:35.755Z,1022.40
2017-10-28T02:04:36.353Z,1022.41
2017-10-28T02:04:36.954Z,1022.40
2017-10-28T02:04:37.553Z,1022.40
2017-10-28T02:05:31.032Z,1022.46
2017-10-28T02:05:31.606Z,1022.47
2017-10-28T02:05:32.206Z,1022.46
2017-10-28T02:05:32.807Z,1022.46
2017-10-28T02:05:33.406Z,1022.44
2017-10-28T02:05:34.006Z,1022.45
2017-10-28T02:05:34.607Z,1022.45
2017-10-28T02:05:35.207Z,1022.46
2017-10-28T02:06:28.684Z,1022.35
2017-10-28T02:06:29.258Z,1022.36
2017-10-28T02:06:29.859Z,1022.36
2017-10-28T02:06:30.457Z,1022.36
2017-10-28T02:06:31.058Z,1022.36
2017-10-28T02:06:31.658Z,1022.34
2017-10-28T02:06:32.258Z,1022.34
2017-10-28T02:06:32.858Z,1022.36
2017-10-28T02:07:27.361Z,1022.30
2017-10-28T02:07:27.933Z,1022.29
2017-10-28T02:07:28.534Z,1022.32
2017-10-28T02:07:29.134Z,1022.28
2017-10-28T02:07:29.734Z,1022.29
2017-10-28T02:07:30.332Z,1022.32
2017-10-28T02:07:30.933Z,1022.29
2017-10-28T02:07:31.534Z,1022.28
2017-10-28T02:08:26.035Z,1022.25
2017-10-28T02:08:26.609Z,1022.22
2017-10-28T02:08:27.209Z,1022.18
2017-10-28T02:08:27.809Z,1022.22
2017-10-28T02:08:28.409Z,1022.18
2017-10-28T02:08:29.008Z,1022.21
2017-10-28T02:08:29.608Z,1022.23
2017-10-28T02:08:30.208Z,1022.22
2017-10-28T02:09:23.687Z,1022.08
2017-10-28T02:09:24.261Z,1022.08
2017-10-28T02:09:24.862Z,1022.08
2017-10-28T02:09:25.460Z,1022.11
2017-10-28T02:09:26.065Z,1022.10
2017-10-28T02:09:26.663Z,1022.11
2017-10-28T02:09:27.260Z,1022.09
2017-10-28T02:09:27.860Z,1022.05
2017-10-28T02:10:21.340Z,1022.03
2017-10-28T02:10:21.913Z,1022.02
2017-10-28T02:10:22.513Z,1022.03
2017-10-28T02:10:23.113Z,1022.05
2017-10-28T02:10:23.712Z,1022.05
2017-10-28T02:10:24.311Z,1022.03
2017-10-28T02:10:24.912Z,1022.01
2017-10-28T02:10:25.512Z,1022.01
2017-10-28T02:11:20.016Z,1021.92
2017-10-28T02:11:20.588Z,1021.93
2017-10-28T02:11:21.187Z,1021.93
2017-10-28T02:11:21.788Z,1021.94
2017-10-28T02:11:22.392Z,1021.91
2017-10-28T02:11:22.989Z,1021.92
2017-10-28T02:11:23.590Z,1021.92
2017-10-28T02:11:24.188Z,1021.95
2017-10-28T02:12:17.665Z,1021.89
2017-10-28T02:12:18.240Z,1021.90
2017-10-28T02:12:18.839Z,1021.90
2017-10-28T02:12:19.438Z,1021.89
2017-10-28T02:12:20.041Z,1021.92
2017-10-28T02:12:20.639Z,1021.90
2017-10-28T02:12:21.239Z,1021.92
2017-10-28T02:12:21.844Z,1021.93
2017-10-28T02:13:16.343Z,1021.92
2017-10-28T02:13:16.915Z,1021.96
2017-10-28T02:13:17.515Z,1021.93
2017-10-28T02:13:18.114Z,1021.91
2017-10-28T02:13:18.715Z,1021.93
2017-10-28T02:13:19.314Z,1021.94
2017-10-28T02:13:19.914Z,1021.96
2017-10-28T02:13:20.514Z,1021.96
2017-10-28T02:14:15.017Z,1021.88
2017-10-28T02:14:15.591Z,1021.86
2017-10-28T02:14:16.191Z,1021.89
2017-10-28T02:14:16.791Z,1021.87
2017-10-28T02:14:17.391Z,1021.88
2017-10-28T02:14:17.990Z,1021.89
2017-10-28T02:14:18.590Z,1021.87
2017-10-28T02:14:19.190Z,1021.88
2017-10-28T02:15:13.693Z,1021.92
2017-10-28T02:15:14.266Z,1021.91
2017-10-28T02:15:14.866Z,1021.89
2017-10-28T02:15:15.471Z,1021.88
2017-10-28T02:15:16.066Z,1021.90
2017-10-28T02:15:16.666Z,1021.87
2017-10-28T02:15:17.268Z,1021.86
2017-10-28T02:15:17.867Z,1021.90
2017-10-28T02:16:11.344Z,1021.80
2017-10-28T02:16:11.919Z,1021.80
2017-10-28T02:16:12.518Z,1021.85
2017-10-28T02:16:13.119Z,1021.83
2017-10-28T02:16:13.718Z,1021.89
2017-10-28T02:16:14.318Z,1021.83
2017-10-28T02:16:14.918Z,1021.82
2017-10-28T02:16:15.517Z,1021.83
2017-10-28T02:17:08.995Z,1021.79
2017-10-28T02:17:09.571Z,1021.80
2017-10-28T02:17:10.172Z,1021.79
2017-10-28T02:17:10.771Z,1021.77
2017-10-28T02:17:11.370Z,1021.79
2017-10-28T02:17:11.975Z,1021.78
2017-10-28T02:17:12.570Z,1021.81
2017-10-28T02:17:13.170Z,1021.80
2017-10-28T02:18:07.674Z,1021.77
2017-10-28T02:18:08.245Z,1021.77
2017-10-28T02:18:08.846Z,1021.77
2017-10-28T02:18:09.445Z,1021.78
2017-10-28T02:18:10.045Z,1021.75
2017-10-28T02:18:10.648Z,1021.74
2017-10-28T02:18:11.243Z,1021.71
2017-10-28T02:18:11.843Z,1021.78
2017-10-28T02:19:06.348Z,1021.75
2017-10-28T02:19:06.922Z,1021.75
2017-10-28T02:19:07.521Z,1021.69
2017-10-28T02:19:08.126Z,1021.72
2017-10-28T02:19:08.722Z,1021.68
2017-10-28T02:19:09.322Z,1021.68
2017-10-28T02:19:09.921Z,1021.64
2017-10-28T02:19:10.520Z,1021.63
2017-10-28T02:20:05.023Z,1021.69
2017-10-28T02:20:05.595Z,1021.68
2017-10-28T02:20:06.197Z,1021.66
2017-10-28T02:20:06.797Z,1021.67
2017-10-28T02:20:07.396Z,1021.70
2017-10-28T02:20:07.995Z,1021.70
2017-10-28T02:20:08.596Z,1021.67
2017-10-28T02:20:09.195Z,1021.67
2017-10-28T02:21:02.675Z,1021.60
2017-10-28T02:21:03.253Z,1021.60
2017-10-28T02:21:03.849Z,1021.58
2017-10-28T02:21:04.448Z,1021.59
2017-10-28T02:21:05.047Z,1021.59
2017-10-28T02:21:05.648Z,1021.59
2017-10-28T02:21:06.248Z,1021.60
2017-10-28T02:21:06.848Z,1021.62
2017-10-28T02:22:00.327Z,1021.70
2017-10-28T02:22:00.905Z,1021.67
2017-10-28T02:22:01.501Z,1021.66
2017-10-28T02:22:02.101Z,1021.67
2017-10-28T02:22:02.700Z,1021.69
2017-10-28T02:22:03.301Z,1021.62
2017-10-28T02:22:03.899Z,1021.67
2017-10-28T02:22:04.499Z,1021.65
2017-10-28T02:22:59.003Z,1021.70
2017-10-28T02:22:59.585Z,1021.73
2017-10-28T02:23:00.176Z,1021.70
2017-10-28T02:23:00.776Z,1021.75
2017-10-28T02:23:01.376Z,1021.67
2017-10-28T02:23:01.975Z,1021.74
2017-10-28T02:23:02.585Z,1021.71
2017-10-28T02:23:03.175Z,1021.72
2017-10-28T02:23:56.653Z,1021.69
2017-10-28T02:23:57.227Z,1021.72
2017-10-28T02:23:57.828Z,1021.68
2017-10-28T02:23:58.428Z,1021.71
2017-10-28T02:23:59.028Z,1021.70
2017-10-28T02:23:59.627Z,1021.67
2017-10-28T02:24:00.227Z,1021.71
2017-10-28T02:24:00.828Z,1021.68
2017-10-28T02:24:55.330Z,1021.71
2017-10-28T02:24:55.904Z,1021.74
2017-10-28T02:24:56.503Z,1021.73
2017-10-28T02:24:57.103Z,1021.71
2017-10-28T02:24:57.703Z,1021.73
2017-10-28T02:24:58.303Z,1021.74
2017-10-28T02:24:58.906Z,1021.72
2017-10-28T02:24:59.502Z,1021.67
2017-10-28T02:25:54.005Z,1021.64
2017-10-28T02:25:54.579Z,1021.63
2017-10-28T02:25:55.178Z,1021.59
2017-10-28T02:25:55.778Z,1021.64
2017-10-28T02:25:56.378Z,1021.64
2017-10-28T02:25:56.978Z,1021.65
2017-10-28T02:25:57.577Z,1021.61
2017-10-28T02:25:58.177Z,1021.62
2017-10-28T02:26:52.682Z,1021.62
2017-10-28T02:26:53.254Z,1021.63
2017-10-28T02:26:53.854Z,1021.64
2017-10-28T02:26:54.454Z,1021.66
2017-10-28T02:26:55.053Z,1021.67
2017-10-28T02:26:55.655Z,1021.67
2017-10-28T02:26:56.265Z,1021.63
2017-10-28T02:26:56.853Z,1021.66
2017-10-28T02:27:51.357Z,1021.57
2017-10-28T02:27:51.928Z,1021.57
2017-10-28T02:27:52.530Z,1021.59
2017-10-28T02:27:53.129Z,1021.58
2017-10-28T02:27:53.730Z,1021.62
2017-10-28T02:27:54.329Z,1021.59
2017-10-28T02:27:54.930Z,1021.59
2017-10-28T02:27:55.531Z,1021.57
2017-10-28T02:28:50.032Z,1021.50
2017-10-28T02:28:50.606Z,1021.51
2017-10-28T02:28:51.205Z,1021.53
2017-10-28T02:28:51.805Z,1021.53
2017-10-28T02:28:52.408Z,1021.52
2017-10-28T02:28:53.006Z,1021.48
2017-10-28T02:28:53.605Z,1021.54
2017-10-28T02:28:54.204Z,1021.55
2017-10-28T02:29:47.684Z,1021.45
2017-10-28T02:29:48.258Z,1021.49
2017-10-28T02:29:48.858Z,1021.46
2017-10-28T02:29:49.458Z,1021.49
2017-10-28T02:29:50.058Z,1021.46
2017-10-28T02:29:50.657Z,1021.50
2017-10-28T02:29:51.259Z,1021.47
2017-10-28T02:29:51.859Z,1021.47
2017-10-28T02:30:45.336Z,1021.51
2017-10-28T02:30:45.910Z,1021.51
2017-10-28T02:30:46.510Z,1021.47
2017-10-28T02:30:47.129Z,1021.49
2017-10-28T02:30:47.708Z,1021.48
2017-10-28T02:30:48.312Z,1021.47
2017-10-28T02:30:48.909Z,1021.52
2017-10-28T02:30:49.509Z,1021.50
2017-10-28T02:31:42.986Z,1021.40
2017-10-28T02:31:43.560Z,1021.42
2017-10-28T02:31:44.161Z,1021.40
2017-10-28T02:31:44.766Z,1021.40
2017-10-28T02:31:45.360Z,1021.41
2017-10-28T02:31:45.964Z,1021.42
2017-10-28T02:31:46.561Z,1021.41
2017-10-28T02:31:47.160Z,1021.42
2017-10-28T02:32:41.663Z,1021.44
2017-10-28T02:32:42.236Z,1021.44
2017-10-28T02:32:42.835Z,1021.43
2017-10-28T02:32:43.436Z,1021.45
2017-10-28T02:32:44.035Z,1021.46
2017-10-28T02:32:44.635Z,1021.43
2017-10-28T02:32:45.236Z,1021.41
2017-10-28T02:32:45.836Z,1021.43
2017-10-28T02:50:41.065Z,1021.44
2017-10-28T02:50:41.643Z,1021.46
2017-10-28T02:50:42.240Z,1021.43
2017-10-28T02:50:42.840Z,1021.45
2017-10-28T02:50:43.441Z,1021.44
2017-10-28T02:50:44.039Z,1021.47
2017-10-28T02:50:44.639Z,1021.46
2017-10-28T02:50:45.241Z,1021.48
2017-10-28T02:51:39.740Z,1021.53
2017-10-28T02:51:40.313Z,1021.47
2017-10-28T02:51:40.914Z,1021.50
2017-10-28T02:51:41.514Z,1021.48
2017-10-28T02:51:42.114Z,1021.50
2017-10-28T02:51:42.713Z,1021.50
2017-10-28T02:51:43.314Z,1021.51
2017-10-28T02:51:43.913Z,1021.49
2017-10-28T02:52:38.416Z,1021.50
2017-10-28T02:52:38.994Z,1021.50
2017-10-28T02:52:39.590Z,1021.48
2017-10-28T02:52:40.190Z,1021.51
2017-10-28T02:52:40.790Z,1021.51
2017-10-28T02:52:41.395Z,1021.52
2017-10-28T02:52:41.990Z,1021.52
2017-10-28T02:52:42.589Z,1021.51
2017-10-28T02:53:37.100Z,1021.44
2017-10-28T02:53:37.666Z,1021.44
2017-10-28T02:53:38.267Z,1021.42
2017-10-28T02:53:38.869Z,1021.42
2017-10-28T02:53:39.466Z,1021.47
2017-10-28T02:53:40.066Z,1021.42
2017-10-28T02:53:40.673Z,1021.45
2017-10-28T02:53:41.266Z,1021.43
2017-10-28T02:54:34.744Z,1021.36
2017-10-28T02:54:35.320Z,1021.37
2017-10-28T02:54:35.920Z,1021.34
2017-10-28T02:54:36.519Z,1021.38
2017-10-28T02:54:37.124Z,1021.36
2017-10-28T02:54:37.719Z,1021.36
2017-10-28T02:54:38.319Z,1021.31
2017-10-28T02:54:38.918Z,1021.35
2017-10-28T02:55:32.396Z,1021.29
2017-10-28T02:55:32.972Z,1021.29
2017-10-28T02:55:33.571Z,1021.29
2017-10-28T02:55:34.172Z,1021.29
2017-10-28T02:55:34.771Z,1021.34
2017-10-28T02:55:35.370Z,1021.29
2017-10-28T02:55:35.972Z,1021.29
2017-10-28T02:55:36.574Z,1021.29
2017-10-28T02:56:30.050Z,1021.36
2017-10-28T02:56:30.624Z,1021.39
2017-10-28T02:56:31.224Z,1021.41
2017-10-28T02:56:31.824Z,1021.37
2017-10-28T02:56:32.425Z,1021.37
2017-10-28T02:56:33.034Z,1021.39
2017-10-28T02:56:33.625Z,1021.37
2017-10-28T02:56:34.225Z,1021.41
2017-10-28T02:57:28.725Z,1021.31
2017-10-28T02:57:29.299Z,1021.31
2017-10-28T02:57:29.899Z,1021.32
2017-10-28T02:57:30.497Z,1021.30
2017-10-28T02:57:31.098Z,1021.29
2017-10-28T02:57:31.699Z,1021.33
2017-10-28T02:57:32.299Z,1021.29
2017-10-28T02:57:32.898Z,1021.28
2017-10-28T02:58:26.379Z,1021.23
2017-10-28T02:58:26.951Z,1021.22
2017-10-28T02:58:27.554Z,1021.26
2017-10-28T02:58:28.151Z,1021.26
2017-10-28T02:58:28.765Z,1021.22
2017-10-28T02:58:29.351Z,1021.22
2017-10-28T02:58:29.950Z,1021.22
2017-10-28T02:58:30.550Z,1021.23
2017-10-28T02:59:24.030Z,1021.23
2017-10-28T02:59:24.603Z,1021.23
2017-10-28T02:59:25.204Z,1021.24
2017-10-28T02:59:25.809Z,1021.22
2017-10-28T02:59:26.403Z,1021.21
2017-10-28T02:59:27.009Z,1021.25
2017-10-28T02:59:27.603Z,1021.22
2017-10-28T02:59:28.203Z,1021.28
2017-10-28T03:00:22.705Z,1021.24
2017-10-28T03:00:23.278Z,1021.21
2017-10-28T03:00:23.879Z,1021.20
2017-10-28T03:00:24.483Z,1021.22
2017-10-28T03:00:25.083Z,1021.21
2017-10-28T03:00:25.679Z,1021.20
2017-10-28T03:00:26.277Z,1021.16
2017-10-28T03:00:26.876Z,1021.18
2017-10-28T03:01:20.356Z,1021.19
2017-10-28T03:01:20.932Z,1021.25
2017-10-28T03:01:21.531Z,1021.24
2017-10-28T03:01:22.132Z,1021.23
2017-10-28T03:01:22.732Z,1021.23
2017-10-28T03:01:23.330Z,1021.21
2017-10-28T03:01:23.930Z,1021.22
2017-10-28T03:01:24.530Z,1021.19
2017-10-28T03:02:18.008Z,1021.15
2017-10-28T03:02:18.588Z,1021.16
2017-10-28T03:02:19.183Z,1021.11
2017-10-28T03:02:19.782Z,1021.16
2017-10-28T03:02:20.381Z,1021.17
2017-10-28T03:02:20.982Z,1021.17
2017-10-28T03:02:21.583Z,1021.17
2017-10-28T03:02:22.183Z,1021.15
2017-10-28T03:03:15.660Z,1021.06
2017-10-28T03:03:16.235Z,1021.03
2017-10-28T03:03:16.835Z,1021.08
2017-10-28T03:03:17.435Z,1021.07
2017-10-28T03:03:18.035Z,1021.03
2017-10-28T03:03:18.635Z,1021.04
2017-10-28T03:03:19.235Z,1021.06
2017-10-28T03:03:19.833Z,1021.03
2017-10-28T03:04:14.336Z,1021.09
2017-10-28T03:04:14.910Z,1021.10
2017-10-28T03:04:15.509Z,1021.12
2017-10-28T03:04:16.109Z,1021.12
2017-10-28T03:04:16.711Z,1021.07
2017-10-28T03:04:17.309Z,1021.10
2017-10-28T03:04:17.909Z,1021.06
2017-10-28T03:04:18.508Z,1021.05
2017-10-28T03:05:11.994Z,1021.05
2017-10-28T03:05:12.561Z,1021.06
2017-10-28T03:05:13.162Z,1021.04
2017-10-28T03:05:13.762Z,1021.06
2017-10-28T03:05:14.361Z,1021.04
2017-10-28T03:05:14.962Z,1021.08
2017-10-28T03:05:15.562Z,1021.09
2017-10-28T03:05:16.161Z,1021.09
2017-10-28T03:06:10.664Z,1020.99
2017-10-28T03:06:11.237Z,1020.99
2017-10-28T03:06:11.837Z,1020.98
2017-10-28T03:06:12.436Z,1020.97
2017-10-28T03:06:13.035Z,1020.95
2017-10-28T03:06:13.636Z,1020.96
2017-10-28T03:06:14.235Z,1020.98
2017-10-28T03:06:14.840Z,1020.99
2017-10-28T03:07:08.314Z,1020.98
2017-10-28T03:07:08.889Z,1021.01
2017-10-28T03:07:09.489Z,1020.99
2017-10-28T03:07:10.090Z,1021.00
2017-10-28T03:07:10.689Z,1020.98
2017-10-28T03:07:11.288Z,1020.97
2017-10-28T03:07:11.889Z,1021.03
2017-10-28T03:07:12.488Z,1021.02
2017-10-28T03:08:06.991Z,1020.98
2017-10-28T03:08:07.564Z,1020.98
2017-10-28T03:08:08.163Z,1020.97
2017-10-28T03:08:08.764Z,1020.99
2017-10-28T03:08:09.363Z,1020.99
2017-10-28T03:08:09.963Z,1021.00
2017-10-28T03:08:10.563Z,1020.99
2017-10-28T03:08:11.162Z,1020.95
2017-10-28T03:09:05.666Z,1021.13
2017-10-28T03:09:06.244Z,1021.11
2017-10-28T03:09:06.839Z,1021.12
2017-10-28T03:09:07.441Z,1021.10
2017-10-28T03:09:08.040Z,1021.09
2017-10-28T03:09:08.639Z,1021.14
2017-10-28T03:09:09.238Z,1021.12
2017-10-28T03:09:09.838Z,1021.12
2017-10-28T03:10:04.342Z,1021.06
2017-10-28T03:10:04.915Z,1021.05
2017-10-28T03:10:05.515Z,1021.04
2017-10-28T03:10:06.115Z,1021.03
2017-10-28T03:10:06.714Z,1021.04
2017-10-28T03:10:07.315Z,1021.07
2017-10-28T03:10:07.914Z,1021.03
2017-10-28T03:10:08.514Z,1021.03
2017-10-28T03:11:03.017Z,1021.07
2017-10-28T03:11:03.592Z,1021.06
2017-10-28T03:11:04.190Z,1021.06
2017-10-28T03:11:04.791Z,1021.09
2017-10-28T03:11:05.392Z,1021.06
2017-10-28T03:11:05.991Z,1021.08
2017-10-28T03:11:06.591Z,1021.08
2017-10-28T03:11:07.190Z,1021.07
2017-10-28T03:12:01.694Z,1020.98
2017-10-28T03:12:02.266Z,1020.94
2017-10-28T03:12:02.867Z,1020.92
2017-10-28T03:12:03.466Z,1020.96
2017-10-28T03:12:04.065Z,1020.92
2017-10-28T03:12:04.666Z,1020.94
2017-10-28T03:12:05.266Z,1020.94
2017-10-28T03:12:05.865Z,1020.93
2017-10-28T03:12:59.346Z,1020.90
2017-10-28T03:12:59.919Z,1020.87
2017-10-28T03:13:00.519Z,1020.82
2017-10-28T03:13:01.119Z,1020.84
2017-10-28T03:13:01.720Z,1020.87
2017-10-28T03:13:02.320Z,1020.89
2017-10-28T03:13:02.919Z,1020.88
2017-10-28T03:13:03.519Z,1020.86
2017-10-28T03:13:56.996Z,1020.81
2017-10-28T03:13:57.571Z,1020.81
2017-10-28T03:13:58.169Z,1020.80
2017-10-28T03:13:58.773Z,1020.82
2017-10-28T03:13:59.370Z,1020.80
2017-10-28T03:13:59.970Z,1020.79
2017-10-28T03:14:00.570Z,1020.79
2017-10-28T03:14:01.172Z,1020.84
2017-10-28T03:14:55.678Z,1020.90
2017-10-28T03:14:56.246Z,1020.90
2017-10-28T03:14:56.848Z,1020.93
2017-10-28T03:14:57.446Z,1020.90
2017-10-28T03:14:58.046Z,1020.89
2017-10-28T03:14:58.646Z,1020.91
2017-10-28T03:14:59.263Z,1020.90
2017-10-28T03:14:59.845Z,1020.90
2017-10-28T03:15:53.324Z,1020.98
2017-10-28T03:15:53.899Z,1020.93
2017-10-28T03:15:54.497Z,1020.91
2017-10-28T03:15:55.096Z,1020.91
2017-10-28T03:15:55.697Z,1020.90
2017-10-28T03:15:56.298Z,1020.93
2017-10-28T03:15:56.898Z,1020.92
2017-10-28T03:15:57.497Z,1020.94
2017-10-28T03:16:50.975Z,1021.01
2017-10-28T03:16:51.550Z,1020.97
2017-10-28T03:16:52.152Z,1020.97
2017-10-28T03:16:52.756Z,1020.96
2017-10-28T03:16:53.364Z,1020.99
2017-10-28T03:16:53.952Z,1020.97
2017-10-28T03:16:54.549Z,1020.97
2017-10-28T03:16:55.149Z,1020.96
2017-10-28T03:17:48.632Z,1020.94
2017-10-28T03:17:49.202Z,1020.94
2017-10-28T03:17:49.801Z,1020.91
2017-10-28T03:17:50.402Z,1020.94
2017-10-28T03:17:51.006Z,1020.91
2017-10-28T03:17:51.603Z,1020.92
2017-10-28T03:17:52.205Z,1020.91
2017-10-28T03:17:52.802Z,1020.91
2017-10-28T03:18:47.306Z,1020.79
2017-10-28T03:18:47.878Z,1020.77
2017-10-28T03:18:48.476Z,1020.79
2017-10-28T03:18:49.076Z,1020.78
2017-10-28T03:18:49.676Z,1020.80
2017-10-28T03:18:50.276Z,1020.77
2017-10-28T03:18:50.876Z,1020.77
2017-10-28T03:18:51.474Z,1020.74
2017-10-28T03:19:45.978Z,1020.55
2017-10-28T03:19:46.554Z,1020.53
2017-10-28T03:19:47.153Z,1020.53
2017-10-28T03:19:47.753Z,1020.47
2017-10-28T03:19:48.352Z,1020.50
2017-10-28T03:19:48.954Z,1020.51
2017-10-28T03:19:49.551Z,1020.53
2017-10-28T03:19:50.152Z,1020.50
2017-10-28T03:20:44.655Z,1020.46
2017-10-28T03:20:45.258Z,1020.43
2017-10-28T03:20:45.826Z,1020.46
2017-10-28T03:20:46.424Z,1020.43
2017-10-28T03:20:47.026Z,1020.46
2017-10-28T03:20:47.624Z,1020.42